Time;durP1;ratioP1;P1;durP2;ratioP2;P2;SDS_P1;SDS_P2;PMS_P1;PMS_P2;Temp;Humidity;BMP_temperature;BMP_pressure;BME280_temperature;BME280_humidity;BME280_pressure;Samples;Min_cycle;Max_cycle;Signal;HPM_P1;HPM_P2
2024/01/14 00:01:34;;;;;;;11.52;3.90;;;4.40;99.90;;;;;;5077145;28;20052;-66
2024/01/14 00:04:01;;;;;;;9.35;3.53;;;4.40;99.90;;;;;;5081629;28;20510;-67
2024/01/14 00:06:29;;;;;;;9.95;3.67;;;4.40;99.90;;;;;;5087741;28;20048;-71
2024/01/14 00:08:57;;;;;;;12.32;3.28;;;4.40;99.90;;;;;;5089492;28;20040;-71
2024/01/14 00:11:24;;;;;;;15.73;4.93;;;4.30;99.90;;;;;;5090678;28;20491;-71
2024/01/14 00:13:52;;;;;;;5.65;2.95;;;4.40;99.90;;;;;;5096232;28;20193;-69
2024/01/14 00:16:20;;;;;;;17.65;2.70;;;4.30;99.90;;;;;;5083102;28;20040;-66
2024/01/14 00:18:47;;;;;;;11.48;2.80;;;4.30;99.90;;;;;;5090556;28;20051;-66
2024/01/14 00:21:15;;;;;;;11.43;3.17;;;4.30;99.90;;;;;;5089598;28;20058;-69
2024/01/14 00:23:43;;;;;;;11.32;1.83;;;4.30;99.90;;;;;;5094596;28;20051;-68
2024/01/14 00:26:10;;;;;;;15.00;2.50;;;4.30;99.90;;;;;;5096931;28;20051;-67
2024/01/14 00:28:38;;;;;;;10.15;2.33;;;4.20;99.90;;;;;;5091041;28;20044;-66
2024/01/14 00:31:06;;;;;;;11.02;2.33;;;4.30;99.90;;;;;;5084443;28;20044;-67
2024/01/14 00:33:35;;;;;;;6.10;3.05;;;4.30;99.90;;;;;;5084634;28;20047;-66
2024/01/14 00:36:04;;;;;;;8.15;2.17;;;4.30;99.90;;;;;;5087710;28;20509;-68
2024/01/14 00:38:31;;;;;;;5.75;1.85;;;4.20;99.90;;;;;;5090538;28;20036;-69
2024/01/14 00:40:59;;;;;;;5.35;1.80;;;4.20;99.90;;;;;;5090044;28;20063;-66
2024/01/14 00:43:27;;;;;;;6.22;1.80;;;4.20;99.90;;;;;;5099023;28;20521;-68
2024/01/14 00:45:55;;;;;;;10.75;2.15;;;4.20;99.90;;;;;;5104198;28;20063;-66
2024/01/14 00:48:23;;;;;;;7.35;2.33;;;4.20;99.90;;;;;;5087131;28;20055;-66
2024/01/14 00:50:50;;;;;;;4.63;1.50;;;4.20;99.90;;;;;;5090119;28;20036;-66
2024/01/14 00:53:18;;;;;;;13.40;2.17;;;4.20;99.90;;;;;;5088845;28;20051;-65
2024/01/14 00:55:46;;;;;;;7.32;1.45;;;4.20;99.90;;;;;;5090369;28;20048;-65
2024/01/14 00:58:14;;;;;;;5.32;1.40;;;4.20;99.90;;;;;;5090267;28;20052;-70
2024/01/14 01:00:42;;;;;;;8.60;1.67;;;4.20;99.90;;;;;;5089713;28;20047;-69
2024/01/14 01:03:09;;;;;;;3.50;1.52;;;4.20;99.90;;;;;;5078537;28;20048;-69
2024/01/14 01:05:37;;;;;;;7.55;1.48;;;4.20;99.90;;;;;;5107104;28;20040;-66
2024/01/14 01:08:05;;;;;;;3.55;1.20;;;4.20;99.90;;;;;;5095911;28;20056;-68
2024/01/14 01:10:33;;;;;;;5.60;1.20;;;4.20;99.90;;;;;;5090046;28;20044;-65
2024/01/14 01:13:01;;;;;;;3.53;1.45;;;4.20;99.90;;;;;;5094783;28;20047;-66
2024/01/14 01:15:28;;;;;;;5.70;1.00;;;4.20;99.90;;;;;;5090145;28;20051;-68
2024/01/14 01:17:56;;;;;;;10.00;1.20;;;4.20;99.90;;;;;;5081784;28;20051;-67
2024/01/14 01:20:24;;;;;;;12.55;1.52;;;4.20;99.90;;;;;;5070362;28;20044;-68
2024/01/14 01:22:52;;;;;;;5.75;0.98;;;4.20;99.90;;;;;;5072763;28;20060;-67
2024/01/14 01:25:19;;;;;;;4.55;1.02;;;4.20;99.90;;;;;;5089806;28;20044;-67
2024/01/14 01:27:47;;;;;;;4.47;0.70;;;4.20;99.90;;;;;;5089863;28;20055;-65
2024/01/14 01:30:15;;;;;;;4.80;1.20;;;4.20;99.90;;;;;;5088595;28;20063;-67
2024/01/14 01:32:43;;;;;;;3.40;0.73;;;4.20;99.90;;;;;;5082362;28;20576;-66
2024/01/14 01:35:11;;;;;;;9.55;0.82;;;4.20;99.90;;;;;;5106833;28;20056;-65
2024/01/14 01:37:39;;;;;;;7.40;0.80;;;4.20;99.90;;;;;;5091496;28;20048;-66
2024/01/14 01:40:09;;;;;;;10.18;1.75;;;4.20;99.90;;;;;;5085348;28;20059;-68
2024/01/14 01:42:37;;;;;;;5.22;1.00;;;4.20;99.90;;;;;;5070416;28;20483;-66
2024/01/14 01:45:05;;;;;;;8.20;0.90;;;4.20;99.90;;;;;;5087427;28;20044;-66
2024/01/14 01:47:33;;;;;;;2.67;0.75;;;4.30;99.90;;;;;;5086170;28;20074;-65
2024/01/14 01:50:01;;;;;;;6.40;1.00;;;4.20;99.90;;;;;;5088134;28;20047;-65
2024/01/14 01:52:29;;;;;;;7.55;1.48;;;4.20;99.90;;;;;;5089829;28;20055;-67
2024/01/14 01:54:57;;;;;;;9.25;0.82;;;4.20;99.90;;;;;;5098963;28;20050;-66
2024/01/14 01:57:26;;;;;;;8.73;1.38;;;4.20;99.90;;;;;;5109121;28;20051;-66
2024/01/14 01:59:54;;;;;;;5.65;1.00;;;4.30;99.90;;;;;;5089523;28;20040;-67
2024/01/14 02:02:22;;;;;;;6.47;0.90;;;4.30;99.90;;;;;;5079943;28;20040;-66
2024/01/14 02:04:50;;;;;;;3.63;1.17;;;4.30;99.90;;;;;;5094250;28;20051;-66
2024/01/14 02:07:20;;;;;;;7.50;0.80;;;4.30;99.90;;;;;;5086223;28;20048;-65
2024/01/14 02:09:48;;;;;;;6.82;0.93;;;4.30;99.90;;;;;;5064515;28;20040;-64
2024/01/14 02:12:15;;;;;;;7.85;0.77;;;4.30;99.90;;;;;;5068702;28;20048;-65
2024/01/14 02:14:43;;;;;;;3.50;1.55;;;4.30;99.90;;;;;;5087258;28;20044;-66
2024/01/14 02:17:11;;;;;;;5.97;1.63;;;4.30;99.90;;;;;;5083096;28;20048;-65
2024/01/14 02:19:38;;;;;;;6.63;0.80;;;4.30;99.90;;;;;;5085965;28;20055;-67
2024/01/14 02:22:13;;;;;;;2.42;0.88;;;4.30;99.90;;;;;;5089061;28;20070;-66
2024/01/14 02:24:41;;;;;;;9.27;1.05;;;4.30;99.90;;;;;;5087619;28;20050;-65
2024/01/14 02:27:09;;;;;;;8.45;0.77;;;4.30;99.90;;;;;;5089136;28;20483;-66
2024/01/14 02:29:39;;;;;;;10.15;0.73;;;4.30;99.90;;;;;;5085198;28;20411;-65
2024/01/14 02:32:06;;;;;;;5.70;0.75;;;4.30;99.90;;;;;;5077823;28;20045;-66
2024/01/14 02:34:35;;;;;;;7.10;0.68;;;4.30;99.90;;;;;;5092086;28;20373;-66
2024/01/14 02:37:03;;;;;;;6.13;0.77;;;4.30;99.90;;;;;;5091979;28;20040;-65
2024/01/14 02:39:31;;;;;;;6.30;1.10;;;4.30;99.90;;;;;;5087975;28;20040;-66
2024/01/14 02:41:59;;;;;;;3.35;0.80;;;4.30;99.90;;;;;;5092077;28;20476;-66
2024/01/14 02:44:27;;;;;;;9.45;1.02;;;4.30;99.90;;;;;;5092005;28;20051;-67
2024/01/14 02:46:54;;;;;;;5.18;0.70;;;4.30;99.90;;;;;;5089843;28;20048;-66
2024/01/14 02:49:22;;;;;;;6.63;0.60;;;4.30;99.90;;;;;;5091832;28;20435;-66
2024/01/14 02:51:49;;;;;;;5.95;0.88;;;4.30;99.90;;;;;;5091705;28;20499;-65
2024/01/14 02:54:17;;;;;;;2.53;0.68;;;4.30;99.90;;;;;;5092184;28;20048;-64
2024/01/14 02:56:45;;;;;;;2.60;0.82;;;4.40;99.90;;;;;;5091757;28;20040;-67
2024/01/14 02:59:12;;;;;;;8.35;1.00;;;4.30;99.90;;;;;;5090964;28;20051;-66
2024/01/14 03:01:46;;;;;;;4.57;1.33;;;4.30;99.90;;;;;;5091077;28;20502;-66
2024/01/14 03:04:14;;;;;;;1.35;0.95;;;4.30;99.90;;;;;;5111855;28;20380;-66
2024/01/14 03:06:41;;;;;;;4.13;0.75;;;4.30;99.90;;;;;;5097526;28;20040;-65
2024/01/14 03:09:09;;;;;;;3.17;1.00;;;4.30;99.90;;;;;;5081550;28;20411;-66
2024/01/14 03:11:37;;;;;;;6.50;1.20;;;4.20;99.90;;;;;;5091523;28;20047;-65
2024/01/14 03:14:04;;;;;;;5.28;1.08;;;4.30;99.90;;;;;;5073477;28;20052;-66
2024/01/14 03:16:32;;;;;;;3.60;0.95;;;4.20;99.90;;;;;;5085632;28;20043;-65
2024/01/14 03:18:59;;;;;;;5.32;1.25;;;4.20;99.90;;;;;;5091512;28;20044;-67
2024/01/14 03:21:27;;;;;;;7.38;0.85;;;4.20;99.90;;;;;;5090187;28;20040;-67
2024/01/14 03:23:55;;;;;;;5.38;1.30;;;4.20;99.90;;;;;;5090640;28;20036;-68
2024/01/14 03:26:23;;;;;;;3.17;0.70;;;4.20;99.90;;;;;;5091545;28;20055;-68
2024/01/14 03:28:51;;;;;;;4.72;0.98;;;4.20;99.90;;;;;;5097411;28;20050;-67
2024/01/14 03:31:18;;;;;;;5.30;0.80;;;4.20;99.90;;;;;;5097924;28;20403;-67
2024/01/14 03:33:46;;;;;;;7.18;0.80;;;4.20;99.90;;;;;;5111782;28;20059;-65
2024/01/14 03:36:14;;;;;;;5.97;1.10;;;4.20;99.90;;;;;;5115989;28;20058;-67
2024/01/14 03:38:43;;;;;;;7.07;1.02;;;4.20;99.90;;;;;;5085497;28;20048;-66
2024/01/14 03:41:11;;;;;;;3.70;0.68;;;4.20;99.90;;;;;;5097601;28;20062;-66
2024/01/14 03:43:39;;;;;;;6.55;0.90;;;4.20;99.90;;;;;;5097247;28;20051;-66
2024/01/14 03:46:07;;;;;;;4.07;0.80;;;4.20;99.90;;;;;;5097192;28;20040;-65
2024/01/14 03:48:35;;;;;;;5.90;0.90;;;4.20;99.90;;;;;;5096486;28;20066;-66
2024/01/14 03:51:03;;;;;;;3.75;1.10;;;4.20;99.90;;;;;;5098128;28;20048;-65
2024/01/14 03:53:32;;;;;;;6.45;0.88;;;4.20;99.90;;;;;;5098114;28;20051;-65
2024/01/14 03:55:59;;;;;;;10.45;0.88;;;4.20;99.90;;;;;;5093666;28;20048;-66
2024/01/14 03:58:27;;;;;;;4.53;0.90;;;4.20;99.90;;;;;;5097862;28;20395;-66
2024/01/14 04:00:54;;;;;;;7.47;0.82;;;4.10;99.90;;;;;;5097173;28;20040;-66
2024/01/14 04:03:22;;;;;;;4.25;0.60;;;4.10;99.90;;;;;;5110742;28;20371;-66
2024/01/14 04:05:50;;;;;;;1.50;0.57;;;4.10;99.90;;;;;;5098704;28;20526;-66
2024/01/14 04:08:17;;;;;;;3.70;0.77;;;4.10;99.90;;;;;;5093685;28;20055;-65
2024/01/14 04:10:45;;;;;;;3.05;0.88;;;4.10;99.90;;;;;;5096633;28;20044;-66
2024/01/14 04:13:13;;;;;;;3.83;0.85;;;4.00;99.90;;;;;;5096987;28;20391;-65
2024/01/14 04:15:40;;;;;;;2.28;0.90;;;4.00;99.90;;;;;;5097122;28;20036;-65
2024/01/14 04:18:08;;;;;;;4.55;1.08;;;4.00;99.90;;;;;;5097712;28;20055;-65
2024/01/14 04:20:36;;;;;;;7.85;1.30;;;3.90;99.90;;;;;;5096373;28;20106;-65
2024/01/14 04:23:04;;;;;;;2.78;0.90;;;3.90;99.90;;;;;;5096058;28;20044;-66
2024/01/14 04:25:32;;;;;;;5.60;1.00;;;3.90;99.90;;;;;;5096927;28;20058;-64
2024/01/14 04:28:01;;;;;;;6.10;1.13;;;3.80;99.90;;;;;;5097212;28;20070;-66
2024/01/14 04:30:29;;;;;;;6.85;1.30;;;3.70;99.90;;;;;;5088225;28;20323;-67
2024/01/14 04:32:58;;;;;;;5.63;0.80;;;3.60;99.90;;;;;;5093143;28;20047;-67
2024/01/14 04:35:26;;;;;;;5.75;1.35;;;3.40;99.90;;;;;;5097701;28;20047;-66
2024/01/14 04:37:53;;;;;;;6.10;1.77;;;3.30;99.90;;;;;;5096998;28;20055;-65
2024/01/14 04:40:22;;;;;;;10.77;1.10;;;3.20;99.90;;;;;;5093512;28;20040;-65
2024/01/14 04:42:50;;;;;;;5.70;1.48;;;3.10;99.90;;;;;;5093248;28;20472;-67
2024/01/14 04:45:18;;;;;;;2.15;0.77;;;3.00;99.90;;;;;;5094227;28;20051;-64
2024/01/14 04:47:46;;;;;;;5.43;1.10;;;2.90;99.90;;;;;;5093342;28;20083;-64
2024/01/14 04:50:14;;;;;;;6.25;1.52;;;2.80;99.90;;;;;;5093629;28;20060;-65
2024/01/14 04:52:42;;;;;;;3.28;1.10;;;2.70;99.90;;;;;;5093440;28;20044;-66
2024/01/14 04:55:10;;;;;;;6.22;1.63;;;2.60;99.90;;;;;;5079005;28;20055;-66
2024/01/14 04:57:38;;;;;;;8.77;1.08;;;2.60;99.90;;;;;;5091364;28;20368;-67
2024/01/14 05:00:07;;;;;;;3.28;0.85;;;2.50;99.90;;;;;;5093012;28;20423;-65
2024/01/14 05:02:35;;;;;;;7.27;1.10;;;2.40;99.90;;;;;;5098340;28;20044;-65
2024/01/14 05:05:02;;;;;;;8.60;1.20;;;2.30;99.90;;;;;;5093362;28;20040;-64
2024/01/14 05:07:30;;;;;;;6.25;1.55;;;2.30;99.90;;;;;;5092852;28;20052;-66
2024/01/14 05:09:58;;;;;;;4.75;1.55;;;2.20;99.90;;;;;;5091384;28;20040;-66
2024/01/14 05:12:27;;;;;;;4.72;1.40;;;2.10;99.90;;;;;;5093198;28;20051;-65
2024/01/14 05:14:55;;;;;;;6.82;1.65;;;2.10;99.90;;;;;;5092442;28;20399;-65
2024/01/14 05:17:24;;;;;;;2.42;1.30;;;2.10;99.90;;;;;;5079334;28;20074;-65
2024/01/14 05:19:52;;;;;;;;;;;2.10;99.90;;;;;;5092786;28;20048;-65
2024/01/14 05:22:20;;;;;;;8.45;2.30;;;2.20;99.90;;;;;;5093491;28;19926;-65
2024/01/14 05:24:50;;;;;;;5.38;2.10;;;2.20;99.90;;;;;;5081728;28;20051;-64
2024/01/14 05:27:17;;;;;;;;;;;2.30;99.90;;;;;;5073718;28;20384;-65
2024/01/14 05:29:45;;;;;;;8.55;1.30;;;2.30;99.90;;;;;;5085751;28;19920;-67
2024/01/14 05:32:14;;;;;;;5.38;1.67;;;2.40;99.90;;;;;;5088865;28;20044;-66
2024/01/14 05:34:44;;;;;;;5.25;1.92;;;2.40;99.90;;;;;;5073348;28;20048;-65
2024/01/14 05:37:12;;;;;;;4.70;1.80;;;2.50;99.90;;;;;;5074226;28;20044;-65
2024/01/14 05:39:40;;;;;;;7.05;1.40;;;2.50;99.90;;;;;;5076480;28;20049;-66
2024/01/14 05:42:07;;;;;;;7.78;1.95;;;2.50;99.90;;;;;;5072933;28;20048;-65
2024/01/14 05:44:35;;;;;;;6.95;1.67;;;2.60;99.90;;;;;;5080334;28;20044;-66
2024/01/14 05:47:03;;;;;;;6.80;1.60;;;2.60;99.90;;;;;;5088999;28;20044;-64
2024/01/14 05:49:31;;;;;;;3.13;1.25;;;2.60;99.90;;;;;;5079250;28;20054;-65
2024/01/14 05:51:59;;;;;;;2.03;0.88;;;2.60;99.90;;;;;;5089643;28;20070;-66
2024/01/14 05:54:26;;;;;;;4.90;1.23;;;2.60;99.90;;;;;;5070782;28;20057;-66
2024/01/14 05:56:57;;;;;;;3.35;1.10;;;2.60;99.90;;;;;;5051877;28;20067;-65
2024/01/14 05:59:25;;;;;;;8.77;1.67;;;2.60;99.90;;;;;;5098903;28;20384;-64
2024/01/14 06:01:52;;;;;;;6.53;1.63;;;2.70;99.90;;;;;;5082321;28;20048;-67
2024/01/14 06:04:20;;;;;;;6.97;1.27;;;2.70;99.90;;;;;;5069295;28;20053;-67
2024/01/14 06:06:48;;;;;;;6.75;1.08;;;2.80;99.90;;;;;;5085938;28;20362;-65
2024/01/14 06:09:16;;;;;;;5.55;1.23;;;2.90;99.90;;;;;;5087415;28;20055;-65
2024/01/14 06:11:44;;;;;;;5.05;1.40;;;2.90;99.90;;;;;;5088288;28;20056;-67
2024/01/14 06:14:12;;;;;;;5.05;1.13;;;2.90;99.90;;;;;;5100807;28;20043;-67
2024/01/14 06:16:39;;;;;;;2.92;1.30;;;2.90;99.90;;;;;;5106264;28;20044;-66
2024/01/14 06:19:07;;;;;;;3.80;1.00;;;3.00;99.90;;;;;;5092383;28;20395;-67
2024/01/14 06:21:42;;;;;;;1.48;0.77;;;3.00;99.90;;;;;;5088472;28;20391;-67
2024/01/14 06:24:12;;;;;;;2.78;0.98;;;3.10;99.90;;;;;;5080713;28;20051;-67
2024/01/14 06:26:40;;;;;;;2.50;0.85;;;3.10;99.90;;;;;;5065563;28;20535;-66
2024/01/14 06:29:08;;;;;;;4.45;1.63;;;3.10;99.90;;;;;;5078984;28;20048;-67
2024/01/14 06:31:36;;;;;;;3.35;1.27;;;3.10;99.90;;;;;;5086089;28;20365;-66
2024/01/14 06:34:08;;;;;;;3.55;1.00;;;3.20;99.90;;;;;;5093517;28;20071;-67
2024/01/14 06:36:36;;;;;;;6.43;1.52;;;3.20;99.90;;;;;;5087161;28;20040;-66
2024/01/14 06:39:05;;;;;;;5.25;1.08;;;3.20;99.90;;;;;;5085222;28;20047;-65
2024/01/14 06:41:34;;;;;;;6.18;1.52;;;3.20;99.90;;;;;;5066148;28;20119;-65
2024/01/14 06:44:01;;;;;;;5.80;1.45;;;3.20;99.90;;;;;;5084170;28;20056;-64
2024/01/14 06:46:29;;;;;;;6.78;1.58;;;3.30;99.90;;;;;;5084135;28;20381;-66
2024/01/14 06:48:57;;;;;;;11.52;2.00;;;3.30;99.90;;;;;;5081839;28;20052;-67
2024/01/14 06:51:25;;;;;;;4.57;1.23;;;3.30;99.90;;;;;;5084157;28;20043;-65
2024/01/14 06:53:52;;;;;;;4.90;1.90;;;3.30;99.90;;;;;;5085760;28;20052;-65
2024/01/14 06:56:20;;;;;;;6.47;1.17;;;3.20;99.90;;;;;;5069340;28;20055;-69
2024/01/14 06:58:52;;;;;;;7.93;1.30;;;3.20;99.90;;;;;;5082382;28;20055;-64
2024/01/14 07:01:19;;;;;;;9.02;1.40;;;3.20;99.90;;;;;;5086574;28;20047;-66
2024/01/14 07:03:47;;;;;;;3.17;1.40;;;3.20;99.90;;;;;;5088830;28;20036;-65
2024/01/14 07:06:15;;;;;;;5.03;1.52;;;3.20;99.90;;;;;;5086689;28;20036;-66
2024/01/14 07:08:43;;;;;;;4.50;1.30;;;3.20;99.90;;;;;;5088144;28;20055;-65
2024/01/14 07:11:11;;;;;;;4.35;1.63;;;3.20;99.90;;;;;;5073687;28;20075;-66
2024/01/14 07:13:43;;;;;;;8.98;1.73;;;3.20;99.90;;;;;;5076099;28;20047;-65
2024/01/14 07:16:11;;;;;;;4.07;1.52;;;3.20;99.90;;;;;;5087945;28;20055;-66
2024/01/14 07:18:39;;;;;;;5.95;1.85;;;3.20;99.90;;;;;;5086728;28;20380;-66
2024/01/14 07:21:12;;;;;;;6.95;1.60;;;3.20;99.90;;;;;;5083055;28;20044;-64
2024/01/14 07:23:40;;;;;;;8.50;1.55;;;3.20;99.90;;;;;;5083833;28;20597;-66
2024/01/14 07:26:15;;;;;;;7.50;1.77;;;3.20;99.90;;;;;;5087108;28;20048;-66
2024/01/14 07:28:43;;;;;;;8.65;1.77;;;3.20;99.90;;;;;;5088081;28;20044;-65
2024/01/14 07:31:12;;;;;;;4.95;1.95;;;3.30;99.90;;;;;;5069144;28;20048;-65
2024/01/14 07:33:41;;;;;;;2.10;1.20;;;3.30;99.90;;;;;;5091305;28;20055;-66
2024/01/14 07:36:09;;;;;;;6.60;1.30;;;3.30;99.90;;;;;;5075682;28;20052;-70
2024/01/14 07:38:38;;;;;;;6.15;1.20;;;3.30;99.90;;;;;;5087724;28;20246;-71
2024/01/14 07:41:06;;;;;;;3.22;1.42;;;3.30;99.90;;;;;;5086267;28;20043;-67
2024/01/14 07:43:33;;;;;;;3.92;1.38;;;3.20;99.90;;;;;;5087543;28;20047;-65
2024/01/14 07:46:01;;;;;;;10.00;1.90;;;3.30;99.90;;;;;;5083102;28;20040;-65
2024/01/14 07:48:29;;;;;;;4.57;1.52;;;3.20;99.90;;;;;;5079273;28;20044;-66
2024/01/14 07:50:57;;;;;;;8.20;1.42;;;3.20;99.90;;;;;;5082277;28;20064;-66
2024/01/14 07:53:25;;;;;;;10.30;1.50;;;3.30;99.90;;;;;;5078469;28;20044;-67
2024/01/14 07:55:52;;;;;;;5.20;1.50;;;3.20;99.90;;;;;;5063904;28;20051;-66
2024/01/14 07:58:20;;;;;;;3.38;1.42;;;3.20;99.90;;;;;;5077406;28;20047;-66
2024/01/14 08:00:48;;;;;;;7.25;1.70;;;3.30;99.90;;;;;;5087667;28;20040;-65
2024/01/14 08:03:29;;;;;;;4.13;2.13;;;3.30;99.90;;;;;;5097781;28;20044;-67
2024/01/14 08:05:59;;;;;;;4.47;1.80;;;3.30;99.90;;;;;;5092742;28;20048;-66
2024/01/14 08:08:28;;;;;;;7.95;1.92;;;3.20;99.90;;;;;;5078189;28;20059;-67
2024/01/14 08:10:56;;;;;;;4.22;1.67;;;3.20;99.90;;;;;;5083068;28;20055;-67
2024/01/14 08:13:24;;;;;;;5.47;2.17;;;3.20;99.90;;;;;;5076266;28;20526;-67
2024/01/14 08:15:52;;;;;;;9.00;1.88;;;3.00;99.90;;;;;;5076400;28;20377;-65
2024/01/14 08:18:29;;;;;;;8.93;1.73;;;3.00;99.90;;;;;;5091433;28;20047;-67
2024/01/14 08:21:00;;;;;;;5.50;1.95;;;3.00;99.90;;;;;;5091105;28;20032;-67
2024/01/14 08:23:33;;;;;;;4.38;1.73;;;2.90;99.90;;;;;;5099522;28;20051;-67
2024/01/14 08:26:01;;;;;;;3.05;1.58;;;2.90;99.90;;;;;;5107996;28;20399;-66
2024/01/14 08:28:32;;;;;;;7.35;1.83;;;2.90;99.90;;;;;;5078386;28;20048;-65
2024/01/14 08:31:00;;;;;;;7.65;1.75;;;2.90;99.90;;;;;;5079017;28;20039;-65
2024/01/14 08:33:29;;;;;;;3.67;1.90;;;3.00;99.90;;;;;;5095184;28;20040;-69
2024/01/14 08:35:57;;;;;;;2.90;1.83;;;3.00;99.90;;;;;;5087823;28;20052;-68
2024/01/14 08:38:25;;;;;;;3.50;1.50;;;3.10;99.90;;;;;;5091101;28;20048;-70
2024/01/14 08:40:53;;;;;;;5.97;1.90;;;3.00;99.90;;;;;;5089884;28;20040;-67
2024/01/14 08:43:20;;;;;;;7.50;2.05;;;3.10;99.90;;;;;;5083118;28;20511;-69
2024/01/14 08:45:48;;;;;;;4.63;1.85;;;3.10;99.90;;;;;;5081554;28;20051;-67
2024/01/14 08:48:16;;;;;;;6.43;2.00;;;3.00;99.90;;;;;;5084009;28;20044;-65
2024/01/14 08:50:44;;;;;;;5.60;1.83;;;3.00;99.90;;;;;;5086394;28;20055;-66
2024/01/14 08:53:11;;;;;;;3.97;2.03;;;3.00;99.90;;;;;;5092894;28;20064;-67
2024/01/14 08:55:39;;;;;;;7.63;2.05;;;2.90;99.90;;;;;;5089770;28;20052;-65
2024/01/14 08:58:07;;;;;;;2.95;2.00;;;2.80;99.90;;;;;;5081054;28;20399;-65
2024/01/14 09:00:34;;;;;;;10.45;2.00;;;2.70;99.90;;;;;;5089906;28;20040;-66
2024/01/14 09:03:03;;;;;;;6.25;2.22;;;2.70;99.90;;;;;;5090427;28;20036;-64
2024/01/14 09:05:31;;;;;;;5.40;2.53;;;2.60;99.90;;;;;;5109851;28;20514;-65
2024/01/14 09:07:59;;;;;;;8.95;2.58;;;2.60;99.90;;;;;;5110737;28;20043;-66
2024/01/14 09:10:26;;;;;;;5.85;2.53;;;2.50;99.90;;;;;;5073771;28;20049;-66
2024/01/14 09:12:54;;;;;;;5.00;2.33;;;2.50;99.90;;;;;;5082059;28;20059;-65
2024/01/14 09:15:23;;;;;;;7.97;2.92;;;2.50;99.90;;;;;;5089126;28;20051;-65
2024/01/14 09:17:51;;;;;;;10.10;3.42;;;2.60;99.90;;;;;;5090180;28;20036;-66
2024/01/14 09:20:19;;;;;;;9.43;3.90;;;2.70;99.90;;;;;;5082251;28;20051;-64
2024/01/14 09:22:47;;;;;;;6.60;3.63;;;2.80;99.90;;;;;;5090192;28;20682;-64
2024/01/14 09:25:15;;;;;;;6.72;3.25;;;2.90;99.90;;;;;;5072084;28;20055;-66
2024/01/14 09:27:43;;;;;;;8.93;4.85;;;3.00;99.90;;;;;;5081100;28;20048;-65
2024/01/14 09:30:12;;;;;;;12.90;4.40;;;3.10;99.90;;;;;;5090283;28;20048;-65
2024/01/14 09:32:40;;;;;;;9.27;4.88;;;3.10;99.90;;;;;;5091072;28;20044;-66
2024/01/14 09:35:08;;;;;;;8.32;4.50;;;3.20;99.90;;;;;;5091434;28;20052;-69
2024/01/14 09:37:36;;;;;;;6.80;3.92;;;3.20;99.90;;;;;;5080425;28;20047;-67
2024/01/14 09:40:05;;;;;;;6.68;4.00;;;3.10;99.90;;;;;;5069545;28;20483;-68
2024/01/14 09:42:35;;;;;;;11.32;5.20;;;3.10;99.90;;;;;;5080275;28;20117;-68
2024/01/14 09:45:05;;;;;;;7.53;3.95;;;3.10;99.90;;;;;;5077951;28;20058;-69
2024/01/14 09:47:34;;;;;;;8.73;4.30;;;3.10;99.90;;;;;;5085555;28;20507;-67
2024/01/14 09:50:03;;;;;;;7.37;5.07;;;3.10;99.90;;;;;;5088620;28;20032;-64
2024/01/14 09:52:32;;;;;;;6.18;4.65;;;3.10;99.90;;;;;;5089549;28;20056;-68
2024/01/14 09:55:01;;;;;;;7.88;4.35;;;3.30;99.90;;;;;;5069226;28;20063;-66
2024/01/14 09:57:30;;;;;;;6.85;4.88;;;3.30;99.90;;;;;;5082904;28;20044;-70
2024/01/14 10:00:06;;;;;;;11.93;4.75;;;3.50;99.90;;;;;;5068460;28;20492;-65
2024/01/14 10:02:35;;;;;;;8.23;3.55;;;3.60;99.90;;;;;;5075098;28;20048;-67
2024/01/14 10:05:03;;;;;;;4.05;2.60;;;3.80;99.90;;;;;;5082612;28;20044;-65
2024/01/14 10:07:32;;;;;;;5.30;3.10;;;4.00;99.90;;;;;;5085184;28;20051;-66
2024/01/14 10:10:00;;;;;;;4.07;2.50;;;4.10;99.90;;;;;;5078382;28;20047;-70
2024/01/14 10:12:28;;;;;;;5.38;2.17;;;4.20;99.90;;;;;;5070261;28;20052;-68
2024/01/14 10:15:00;;;;;;;6.63;2.60;;;4.30;99.90;;;;;;5074314;28;20040;-68
2024/01/14 10:17:28;;;;;;;6.60;2.47;;;4.40;99.90;;;;;;5070092;28;20672;-67
2024/01/14 10:19:59;;;;;;;4.85;1.98;;;4.40;99.90;;;;;;5088263;28;20051;-68
2024/01/14 10:22:30;;;;;;;7.95;3.95;;;4.50;99.90;;;;;;5081397;28;20050;-65
2024/01/14 10:24:57;;;;;;;5.95;2.20;;;4.60;99.90;;;;;;5089381;28;20040;-67
2024/01/14 10:27:26;;;;;;;7.95;2.60;;;4.60;99.90;;;;;;5089227;28;20048;-67
2024/01/14 10:30:14;;;;;;;4.55;2.30;;;4.70;99.90;;;;;;5089221;28;20051;-68
2024/01/14 10:32:42;;;;;;;5.78;2.65;;;4.80;99.90;;;;;;5078420;28;20055;-68
2024/01/14 10:35:30;;;;;;;4.53;2.00;;;4.80;99.90;;;;;;5089122;28;20036;-68
2024/01/14 10:38:01;;;;;;;2.78;2.08;;;4.90;99.90;;;;;;5087404;28;20055;-67
2024/01/14 10:40:28;;;;;;;5.60;2.30;;;4.90;99.90;;;;;;5088891;28;20051;-65
2024/01/14 10:42:57;;;;;;;2.90;1.70;;;4.90;99.90;;;;;;5084509;28;20292;-67
2024/01/14 10:45:25;;;;;;;5.05;1.98;;;4.90;99.90;;;;;;5068697;28;20515;-67
2024/01/14 10:48:00;;;;;;;5.88;1.80;;;5.00;99.90;;;;;;5073943;28;20036;-67
2024/01/14 10:50:32;;;;;;;6.18;1.88;;;5.00;99.90;;;;;;5088780;28;20055;-69
2024/01/14 10:53:20;;;;;;;2.88;1.65;;;5.00;99.90;;;;;;5086987;28;20047;-66
2024/01/14 10:55:50;;;;;;;3.40;1.83;;;5.00;99.90;;;;;;5068618;28;20057;-65
2024/01/14 10:58:28;;;;;;;5.30;4.72;;;5.00;99.90;;;;;;5077559;28;20500;-66
2024/01/14 11:01:01;;;;;;;2.72;2.33;;;5.00;99.90;;;;;;5070359;28;20048;-67
2024/01/14 11:03:33;;;;;;;4.95;2.13;;;5.00;99.90;;;;;;5081902;28;20483;-67
2024/01/14 11:06:02;;;;;;;3.60;1.45;;;5.00;99.90;;;;;;5087359;28;20059;-66
2024/01/14 11:08:31;;;;;;;4.35;1.70;;;5.00;99.90;;;;;;5086576;28;20055;-66
2024/01/14 11:11:00;;;;;;;8.48;2.38;;;5.00;99.90;;;;;;5088527;28;20048;-67
2024/01/14 11:13:39;;;;;;;6.72;3.22;;;5.00;99.90;;;;;;5094862;28;20054;-67
2024/01/14 11:16:28;;;;;;;7.68;2.50;;;5.00;99.90;;;;;;5072133;28;20066;-66
2024/01/14 11:19:03;;;;;;;4.68;2.28;;;5.00;99.90;;;;;;5098173;28;20502;-66
2024/01/14 11:21:55;;;;;;;5.68;2.88;;;5.10;99.90;;;;;;5107773;28;20588;-67
2024/01/14 11:24:43;;;;;;;7.15;3.00;;;5.10;99.90;;;;;;5089562;28;20048;-67
2024/01/14 11:27:14;;;;;;;7.60;3.05;;;5.20;99.90;;;;;;5087188;28;20040;-66
2024/01/14 11:29:51;;;;;;;7.47;3.13;;;5.10;99.90;;;;;;5068101;28;20052;-65
2024/01/14 11:32:21;;;;;;;6.65;3.95;;;5.20;99.90;;;;;;5071409;28;20052;-69
2024/01/14 11:34:54;;;;;;;5.05;3.15;;;5.20;99.90;;;;;;5086808;28;20040;-69
2024/01/14 11:37:42;;;;;;;4.43;2.88;;;5.20;99.90;;;;;;5088245;28;20047;-71
2024/01/14 11:40:16;;;;;;;7.95;3.10;;;5.20;99.90;;;;;;5088520;28;20052;-68
2024/01/14 11:42:50;;;;;;;10.15;3.42;;;5.20;99.90;;;;;;5090053;28;20041;-70
2024/01/14 11:45:25;;;;;;;6.72;3.50;;;5.10;99.90;;;;;;5086534;28;20510;-69
2024/01/14 11:47:54;;;;;;;5.95;3.28;;;5.10;99.90;;;;;;5085023;28;20395;-70
2024/01/14 11:50:26;;;;;;;9.45;4.22;;;5.10;99.90;;;;;;5092133;28;20055;-70
2024/01/14 11:52:57;;;;;;;6.57;4.93;;;5.10;99.90;;;;;;5097529;28;20044;-70
2024/01/14 11:55:28;;;;;;;6.43;4.20;;;5.10;99.90;;;;;;5090653;28;20044;-71
2024/01/14 11:58:07;;;;;;;7.07;3.40;;;5.10;99.90;;;;;;5091959;28;20467;-69
2024/01/14 12:00:37;;;;;;;3.88;3.28;;;5.10;99.90;;;;;;5092107;28;20059;-70
2024/01/14 12:03:13;;;;;;;5.65;3.35;;;5.10;99.90;;;;;;5087924;28;20043;-66
2024/01/14 12:05:42;;;;;;;6.07;3.47;;;5.10;99.90;;;;;;5090915;28;20395;-69
2024/01/14 12:08:12;;;;;;;6.10;3.63;;;5.20;99.90;;;;;;5091945;28;20399;-68
2024/01/14 12:10:40;;;;;;;3.85;2.90;;;5.20;99.90;;;;;;5091611;28;20048;-69
2024/01/14 12:13:08;;;;;;;4.60;3.17;;;5.20;99.90;;;;;;5093138;28;20044;-68
2024/01/14 12:15:36;;;;;;;5.88;3.20;;;5.20;99.90;;;;;;5086748;28;20067;-68
2024/01/14 12:18:07;;;;;;;4.45;2.63;;;5.20;99.90;;;;;;5089804;28;20052;-67
2024/01/14 12:20:35;;;;;;;3.08;2.75;;;5.20;99.90;;;;;;5090260;28;20047;-68
2024/01/14 12:23:04;;;;;;;5.32;3.05;;;5.10;99.90;;;;;;5096695;28;20051;-65
2024/01/14 12:25:35;;;;;;;5.47;4.07;;;5.10;99.90;;;;;;5091252;28;20067;-69
2024/01/14 12:28:04;;;;;;;3.95;2.33;;;5.10;99.90;;;;;;5090056;28;20048;-68
2024/01/14 12:30:34;;;;;;;4.80;3.20;;;5.00;99.90;;;;;;5091446;28;20043;-65
2024/01/14 12:33:07;;;;;;;7.25;3.58;;;5.00;99.90;;;;;;5088332;28;20048;-67
2024/01/14 12:35:37;;;;;;;7.00;4.40;;;5.10;99.90;;;;;;5091213;28;20051;-69
2024/01/14 12:38:06;;;;;;;10.57;3.88;;;5.10;99.90;;;;;;5091197;28;20048;-67
2024/01/14 12:40:35;;;;;;;5.93;4.03;;;5.30;99.90;;;;;;5091014;28;20044;-69
2024/01/14 12:43:06;;;;;;;9.43;4.97;;;5.30;99.90;;;;;;5090108;28;20659;-70
2024/01/14 12:45:35;;;;;;;5.10;3.78;;;5.30;99.90;;;;;;5090544;28;20047;-70
2024/01/14 12:48:04;;;;;;;5.88;3.65;;;5.30;99.90;;;;;;5069082;28;20048;-68
2024/01/14 12:50:34;;;;;;;7.35;3.65;;;5.40;99.90;;;;;;5090913;28;20051;-68
2024/01/14 12:53:09;;;;;;;6.68;3.88;;;5.40;99.90;;;;;;5093361;28;20050;-66
2024/01/14 12:55:37;;;;;;;6.15;3.17;;;5.40;99.90;;;;;;5090940;28;20510;-67
2024/01/14 12:58:05;;;;;;;6.75;3.63;;;5.50;99.90;;;;;;5090557;28;20059;-71
2024/01/14 13:00:34;;;;;;;4.78;3.15;;;5.60;99.90;;;;;;5089930;28;20044;-68
2024/01/14 13:03:03;;;;;;;4.97;3.13;;;5.60;99.90;;;;;;5088707;28;20404;-67
2024/01/14 13:05:30;;;;;;;3.40;2.85;;;5.60;99.90;;;;;;5086705;28;20048;-69
2024/01/14 13:07:59;;;;;;;5.35;3.33;;;5.60;99.90;;;;;;5096755;28;20501;-68